Hovedside
METAR-TAF:

METAR-TAF

Lufthavner :

Pittsburgh internasjonale lufthavn

Pittsburgh, Pennsylvania, USA

breddegrad: 40-30-14N, lengdegrad: 080-15-59W, høyde over havet: 366 m

Gjeldene værobservasjon

Denne rapporten ble laget for 9 minutter siden, klokken 03:51 UTC
Flau vind
Temperatur 18°C
Luftfuktighet 94%
Trykk 1019 hPa
Sikt: 16.1 km
Skyfri himmel

METAR: KPIT 200351Z 00000KT 10SM CLR 18/17 A3009 RMK AO2 SLP190 T01830172

Tid: 00:00 (04:00 UTC)

Varsel

Denne rapporten ble laget for 1 time og 5 minutter siden, klokken 02:55 UTC
Varsel gyldig fra 20. klokken 03 UTC til 21. klokken 06 UTC
Vind 4 kt fra Nord
Sikt: 10 km
Skyfri himmel
Midlertidig
fra 20. klokken 09 UTC til 20. klokken 12 UTC
Sikt: 4.8 km
dis
Fra 20. klokken 1300 UTC
Vind 4 kt fra Sør
Sikt: 10 km
Skyfri himmel

TAF: KPIT 200255Z 2003/2106 36004KT P6SM SKC TEMPO 2009/2012 3SM BR FM201300 17004KT P6SM SKC

Værobservasjoner og værvarsel for over 4000 flyplasser (METAR- og TAF-rapporter).

Tilgjengelige stasjoner er representert av de røde og gule prikkene på kartet.

Hold musepekeren over prikken for å se navnet på stasjonen.

Klikk så for å se værobservasjoner og -varsler.

For å forandre kartet kan du klikke på den grønne knappen med svart kryss for å zoome inn, på den grønne knappen med strek for å zoome ut, eller på de grønne pilene for å se tilstøtende kart.


METAR-TAF: